Sainte-Julie, Canada
Current Conditions -  °F | °C
As of 5:31 PM on Monday 24 Nov 2014 (Local Time) from CYHU Reporting Station
Light Rain Light Rain  
Wind Chill: 61°   Ceiling: 8700
Heat Index: 61°   Visibility: 9mi
Dew Point: 54°   Wind: 18mph
Humidity: 77%   Direction: 190°S
Pressure: 29.29"   Gusts: 24mph
Location:  45.58°N, 73.33°W
Report Text: CYHU 242231Z AUTO 19016G21KT 9SM -RARA FEW031 SCT065 BKN087 OVC120 16/12 A2929 RMK LTNG DIST N SLP920 DENSITY ALT 900FT
Loading
Personal Weather Stations






























Interactive Weather Map New forecast layout! Learn more

10-Day Weather Forecast

Advertisements
Track Severe Weather on mobile